sensor_id;sensor_type;location;lat;lon;timestamp;P1;durP1;ratioP1;P2;durP2;ratioP2
23346;SDS011;36852;45.466;11.066;2023-04-12T00:00:39;19.25;;;13.03;;
23346;SDS011;36852;45.466;11.066;2023-04-12T00:03:07;19.40;;;12.35;;
23346;SDS011;36852;45.466;11.066;2023-04-12T00:05:36;20.05;;;12.45;;
23346;SDS011;36852;45.466;11.066;2023-04-12T00:08:04;18.60;;;12.75;;
23346;SDS011;36852;45.466;11.066;2023-04-12T00:10:37;19.70;;;12.25;;
23346;SDS011;36852;45.466;11.066;2023-04-12T00:13:05;22.35;;;14.58;;
23346;SDS011;36852;45.466;11.066;2023-04-12T00:15:34;20.25;;;12.70;;
23346;SDS011;36852;45.466;11.066;2023-04-12T00:18:02;20.37;;;12.78;;
23346;SDS011;36852;45.466;11.066;2023-04-12T00:20:30;18.87;;;12.50;;
23346;SDS011;36852;45.466;11.066;2023-04-12T00:22:58;19.17;;;13.58;;
23346;SDS011;36852;45.466;11.066;2023-04-12T00:25:26;18.87;;;12.05;;
23346;SDS011;36852;45.466;11.066;2023-04-12T00:27:55;19.32;;;12.37;;
23346;SDS011;36852;45.466;11.066;2023-04-12T00:30:23;22.32;;;13.25;;
23346;SDS011;36852;45.466;11.066;2023-04-12T00:32:51;18.55;;;12.40;;
23346;SDS011;36852;45.466;11.066;2023-04-12T00:35:19;19.35;;;12.98;;
23346;SDS011;36852;45.466;11.066;2023-04-12T00:37:48;21.27;;;13.25;;
23346;SDS011;36852;45.466;11.066;2023-04-12T00:40:17;20.62;;;12.85;;
23346;SDS011;36852;45.466;11.066;2023-04-12T00:42:45;19.73;;;13.55;;
23346;SDS011;36852;45.466;11.066;2023-04-12T00:45:14;19.90;;;13.93;;
23346;SDS011;36852;45.466;11.066;2023-04-12T00:47:42;20.37;;;13.55;;
23346;SDS011;36852;45.466;11.066;2023-04-12T00:50:10;20.75;;;13.65;;
23346;SDS011;36852;45.466;11.066;2023-04-12T00:52:38;19.73;;;13.55;;
23346;SDS011;36852;45.466;11.066;2023-04-12T00:55:06;19.17;;;13.15;;
23346;SDS011;36852;45.466;11.066;2023-04-12T00:57:36;21.57;;;14.10;;
23346;SDS011;36852;45.466;11.066;2023-04-12T01:00:08;21.57;;;13.53;;
23346;SDS011;36852;45.466;11.066;2023-04-12T01:02:43;21.70;;;13.80;;
23346;SDS011;36852;45.466;11.066;2023-04-12T01:05:17;20.25;;;12.75;;
23346;SDS011;36852;45.466;11.066;2023-04-12T01:13:50;21.50;;;12.95;;
23346;SDS011;36852;45.466;11.066;2023-04-12T01:16:27;19.90;;;13.55;;
23346;SDS011;36852;45.466;11.066;2023-04-12T01:19:02;19.50;;;13.53;;
23346;SDS011;36852;45.466;11.066;2023-04-12T01:21:44;20.85;;;13.93;;
23346;SDS011;36852;45.466;11.066;2023-04-12T01:24:24;19.37;;;13.95;;
23346;SDS011;36852;45.466;11.066;2023-04-12T01:27:09;21.57;;;13.95;;
23346;SDS011;36852;45.466;11.066;2023-04-12T01:29:39;25.88;;;14.35;;
23346;SDS011;36852;45.466;11.066;2023-04-12T01:32:07;19.40;;;13.53;;
23346;SDS011;36852;45.466;11.066;2023-04-12T01:34:38;21.95;;;13.20;;
23346;SDS011;36852;45.466;11.066;2023-04-12T01:37:07;22.30;;;14.05;;
23346;SDS011;36852;45.466;11.066;2023-04-12T01:39:37;19.48;;;13.75;;
23346;SDS011;36852;45.466;11.066;2023-04-12T01:42:05;20.05;;;13.72;;
23346;SDS011;36852;45.466;11.066;2023-04-12T01:44:33;19.67;;;13.03;;
23346;SDS011;36852;45.466;11.066;2023-04-12T01:47:01;18.23;;;12.53;;
23346;SDS011;36852;45.466;11.066;2023-04-12T01:49:31;20.82;;;14.33;;
23346;SDS011;36852;45.466;11.066;2023-04-12T01:52:05;20.10;;;12.45;;
23346;SDS011;36852;45.466;11.066;2023-04-12T01:54:38;21.23;;;14.05;;
23346;SDS011;36852;45.466;11.066;2023-04-12T01:57:07;16.37;;;13.13;;
23346;SDS011;36852;45.466;11.066;2023-04-12T01:59:40;20.70;;;14.38;;
23346;SDS011;36852;45.466;11.066;2023-04-12T02:02:10;22.37;;;14.15;;
23346;SDS011;36852;45.466;11.066;2023-04-12T02:04:43;21.20;;;13.83;;
23346;SDS011;36852;45.466;11.066;2023-04-12T02:07:12;28.57;;;14.35;;
23346;SDS011;36852;45.466;11.066;2023-04-12T02:09:45;24.02;;;14.78;;
23346;SDS011;36852;45.466;11.066;2023-04-12T02:12:13;23.05;;;12.60;;
23346;SDS011;36852;45.466;11.066;2023-04-12T02:14:40;17.20;;;12.60;;
23346;SDS011;36852;45.466;11.066;2023-04-12T02:17:09;23.98;;;13.32;;
23346;SDS011;36852;45.466;11.066;2023-04-12T02:19:39;23.05;;;14.07;;
23346;SDS011;36852;45.466;11.066;2023-04-12T02:22:08;22.05;;;14.28;;
23346;SDS011;36852;45.466;11.066;2023-04-12T02:24:36;21.48;;;13.60;;
23346;SDS011;36852;45.466;11.066;2023-04-12T02:27:04;19.57;;;13.40;;
23346;SDS011;36852;45.466;11.066;2023-04-12T02:29:36;20.57;;;13.90;;
23346;SDS011;36852;45.466;11.066;2023-04-12T02:32:04;19.45;;;14.00;;
23346;SDS011;36852;45.466;11.066;2023-04-12T02:34:32;21.12;;;13.40;;
23346;SDS011;36852;45.466;11.066;2023-04-12T02:37:16;20.88;;;13.62;;
23346;SDS011;36852;45.466;11.066;2023-04-12T02:39:46;18.48;;;12.88;;
23346;SDS011;36852;45.466;11.066;2023-04-12T02:42:15;23.32;;;14.20;;
23346;SDS011;36852;45.466;11.066;2023-04-12T02:44:45;22.25;;;14.13;;
23346;SDS011;36852;45.466;11.066;2023-04-12T02:47:14;23.47;;;14.73;;
23346;SDS011;36852;45.466;11.066;2023-04-12T02:49:43;20.92;;;14.13;;
23346;SDS011;36852;45.466;11.066;2023-04-12T02:52:13;22.80;;;14.50;;
23346;SDS011;36852;45.466;11.066;2023-04-12T02:54:49;24.27;;;15.05;;
23346;SDS011;36852;45.466;11.066;2023-04-12T02:57:18;28.65;;;15.40;;
23346;SDS011;36852;45.466;11.066;2023-04-12T02:59:49;22.73;;;15.13;;
23346;SDS011;36852;45.466;11.066;2023-04-12T03:02:22;24.98;;;15.45;;
23346;SDS011;36852;45.466;11.066;2023-04-12T03:04:52;25.27;;;15.10;;
23346;SDS011;36852;45.466;11.066;2023-04-12T03:07:23;25.60;;;14.87;;
23346;SDS011;36852;45.466;11.066;2023-04-12T03:09:53;20.82;;;14.38;;
23346;SDS011;36852;45.466;11.066;2023-04-12T03:12:22;23.87;;;15.68;;
23346;SDS011;36852;45.466;11.066;2023-04-12T03:14:51;23.40;;;14.87;;
23346;SDS011;36852;45.466;11.066;2023-04-12T03:17:21;25.12;;;16.00;;
23346;SDS011;36852;45.466;11.066;2023-04-12T03:19:50;21.82;;;14.95;;
23346;SDS011;36852;45.466;11.066;2023-04-12T03:22:20;26.25;;;16.10;;
23346;SDS011;36852;45.466;11.066;2023-04-12T03:24:51;26.25;;;16.45;;
23346;SDS011;36852;45.466;11.066;2023-04-12T03:27:20;24.05;;;15.38;;
23346;SDS011;36852;45.466;11.066;2023-04-12T03:29:48;24.82;;;15.93;;
23346;SDS011;36852;45.466;11.066;2023-04-12T03:32:20;24.77;;;14.53;;
23346;SDS011;36852;45.466;11.066;2023-04-12T03:34:48;24.98;;;16.45;;
23346;SDS011;36852;45.466;11.066;2023-04-12T03:37:18;24.02;;;16.42;;
23346;SDS011;36852;45.466;11.066;2023-04-12T03:39:46;25.00;;;16.48;;
23346;SDS011;36852;45.466;11.066;2023-04-12T03:42:16;23.22;;;15.75;;
23346;SDS011;36852;45.466;11.066;2023-04-12T03:44:47;25.72;;;15.45;;
23346;SDS011;36852;45.466;11.066;2023-04-12T03:47:15;23.98;;;16.17;;
23346;SDS011;36852;45.466;11.066;2023-04-12T03:49:43;22.22;;;14.83;;
23346;SDS011;36852;45.466;11.066;2023-04-12T03:52:12;22.22;;;15.32;;
23346;SDS011;36852;45.466;11.066;2023-04-12T03:54:42;23.83;;;15.45;;
23346;SDS011;36852;45.466;11.066;2023-04-12T03:57:12;22.07;;;16.05;;
23346;SDS011;36852;45.466;11.066;2023-04-12T03:59:42;23.20;;;15.40;;
23346;SDS011;36852;45.466;11.066;2023-04-12T04:02:10;21.60;;;14.70;;
23346;SDS011;36852;45.466;11.066;2023-04-12T04:04:40;22.58;;;14.95;;
23346;SDS011;36852;45.466;11.066;2023-04-12T04:07:10;21.73;;;13.85;;
23346;SDS011;36852;45.466;11.066;2023-04-12T04:09:42;25.77;;;15.13;;
23346;SDS011;36852;45.466;11.066;2023-04-12T04:12:11;23.05;;;15.15;;
23346;SDS011;36852;45.466;11.066;2023-04-12T04:14:40;21.00;;;13.85;;
23346;SDS011;36852;45.466;11.066;2023-04-12T04:17:10;20.20;;;13.83;;
23346;SDS011;36852;45.466;11.066;2023-04-12T04:19:38;22.37;;;15.03;;
23346;SDS011;36852;45.466;11.066;2023-04-12T04:22:06;25.30;;;15.10;;
23346;SDS011;36852;45.466;11.066;2023-04-12T04:24:34;21.02;;;14.83;;
23346;SDS011;36852;45.466;11.066;2023-04-12T04:27:05;25.50;;;15.58;;
23346;SDS011;36852;45.466;11.066;2023-04-12T04:29:33;23.77;;;14.47;;
23346;SDS011;36852;45.466;11.066;2023-04-12T04:32:02;23.75;;;15.85;;
23346;SDS011;36852;45.466;11.066;2023-04-12T04:34:31;22.93;;;15.13;;
23346;SDS011;36852;45.466;11.066;2023-04-12T04:37:00;20.27;;;14.43;;
23346;SDS011;36852;45.466;11.066;2023-04-12T04:39:28;22.25;;;14.68;;
23346;SDS011;36852;45.466;11.066;2023-04-12T04:41:58;25.02;;;15.85;;
23346;SDS011;36852;45.466;11.066;2023-04-12T04:44:32;26.00;;;16.83;;
23346;SDS011;36852;45.466;11.066;2023-04-12T04:47:03;24.60;;;17.10;;
23346;SDS011;36852;45.466;11.066;2023-04-12T04:49:32;33.25;;;16.73;;
23346;SDS011;36852;45.466;11.066;2023-04-12T04:52:06;25.32;;;17.27;;
23346;SDS011;36852;45.466;11.066;2023-04-12T04:54:35;27.32;;;17.82;;
23346;SDS011;36852;45.466;11.066;2023-04-12T04:57:03;28.27;;;17.70;;
23346;SDS011;36852;45.466;11.066;2023-04-12T04:59:34;27.25;;;18.10;;
23346;SDS011;36852;45.466;11.066;2023-04-12T05:02:04;29.63;;;18.90;;
23346;SDS011;36852;45.466;11.066;2023-04-12T05:04:33;28.35;;;18.27;;
23346;SDS011;36852;45.466;11.066;2023-04-12T05:07:01;27.52;;;18.23;;
23346;SDS011;36852;45.466;11.066;2023-04-12T05:09:29;25.65;;;16.17;;
23346;SDS011;36852;45.466;11.066;2023-04-12T05:11:58;25.25;;;17.85;;
23346;SDS011;36852;45.466;11.066;2023-04-12T05:14:26;24.10;;;16.40;;
23346;SDS011;36852;45.466;11.066;2023-04-12T05:16:55;28.25;;;18.07;;
23346;SDS011;36852;45.466;11.066;2023-04-12T05:19:23;26.02;;;17.85;;
23346;SDS011;36852;45.466;11.066;2023-04-12T05:21:51;25.23;;;15.93;;
23346;SDS011;36852;45.466;11.066;2023-04-12T05:24:19;24.80;;;15.72;;
23346;SDS011;36852;45.466;11.066;2023-04-12T05:26:48;23.00;;;14.40;;
23346;SDS011;36852;45.466;11.066;2023-04-12T05:29:16;28.92;;;17.02;;
23346;SDS011;36852;45.466;11.066;2023-04-12T05:31:45;21.70;;;15.00;;
23346;SDS011;36852;45.466;11.066;2023-04-12T05:34:14;21.82;;;15.40;;
23346;SDS011;36852;45.466;11.066;2023-04-12T05:36:43;20.30;;;14.45;;
23346;SDS011;36852;45.466;11.066;2023-04-12T05:39:12;22.42;;;15.13;;
23346;SDS011;36852;45.466;11.066;2023-04-12T05:41:40;20.90;;;14.38;;
23346;SDS011;36852;45.466;11.066;2023-04-12T05:44:08;22.73;;;14.63;;
23346;SDS011;36852;45.466;11.066;2023-04-12T05:46:36;20.45;;;13.93;;
23346;SDS011;36852;45.466;11.066;2023-04-12T05:49:04;36.38;;;16.70;;
23346;SDS011;36852;45.466;11.066;2023-04-12T05:51:32;35.23;;;17.12;;
23346;SDS011;36852;45.466;11.066;2023-04-12T05:54:03;21.02;;;13.80;;
23346;SDS011;36852;45.466;11.066;2023-04-12T05:56:33;19.52;;;13.15;;
23346;SDS011;36852;45.466;11.066;2023-04-12T05:59:00;19.10;;;12.20;;
23346;SDS011;36852;45.466;11.066;2023-04-12T06:01:28;16.17;;;10.82;;
23346;SDS011;36852;45.466;11.066;2023-04-12T06:03:59;16.20;;;11.38;;
23346;SDS011;36852;45.466;11.066;2023-04-12T06:06:32;19.02;;;11.45;;
23346;SDS011;36852;45.466;11.066;2023-04-12T06:09:00;14.98;;;10.30;;
23346;SDS011;36852;45.466;11.066;2023-04-12T06:11:30;17.35;;;10.58;;
23346;SDS011;36852;45.466;11.066;2023-04-12T06:14:00;14.70;;;9.75;;
23346;SDS011;36852;45.466;11.066;2023-04-12T06:16:28;15.03;;;10.90;;
23346;SDS011;36852;45.466;11.066;2023-04-12T06:18:56;16.90;;;10.38;;
23346;SDS011;36852;45.466;11.066;2023-04-12T06:21:25;15.48;;;9.83;;
23346;SDS011;36852;45.466;11.066;2023-04-12T06:23:53;14.70;;;9.43;;
23346;SDS011;36852;45.466;11.066;2023-04-12T06:26:21;15.85;;;9.43;;
23346;SDS011;36852;45.466;11.066;2023-04-12T06:28:49;14.45;;;10.53;;
23346;SDS011;36852;45.466;11.066;2023-04-12T06:31:18;13.60;;;9.90;;
23346;SDS011;36852;45.466;11.066;2023-04-12T06:33:47;15.20;;;10.15;;
23346;SDS011;36852;45.466;11.066;2023-04-12T06:36:15;15.15;;;8.70;;
23346;SDS011;36852;45.466;11.066;2023-04-12T06:38:42;22.13;;;11.48;;
23346;SDS011;36852;45.466;11.066;2023-04-12T06:41:11;13.85;;;9.75;;
23346;SDS011;36852;45.466;11.066;2023-04-12T06:43:39;14.70;;;9.88;;
23346;SDS011;36852;45.466;11.066;2023-04-12T06:46:08;14.70;;;9.75;;
23346;SDS011;36852;45.466;11.066;2023-04-12T06:48:36;15.93;;;9.23;;
23346;SDS011;36852;45.466;11.066;2023-04-12T06:51:04;15.30;;;9.88;;
23346;SDS011;36852;45.466;11.066;2023-04-12T06:53:32;16.12;;;8.90;;
23346;SDS011;36852;45.466;11.066;2023-04-12T06:56:02;15.60;;;9.55;;
23346;SDS011;36852;45.466;11.066;2023-04-12T06:58:31;24.07;;;12.35;;
23346;SDS011;36852;45.466;11.066;2023-04-12T07:01:06;17.40;;;10.18;;
23346;SDS011;36852;45.466;11.066;2023-04-12T07:03:35;14.70;;;9.28;;
23346;SDS011;36852;45.466;11.066;2023-04-12T07:06:05;32.65;;;12.07;;
23346;SDS011;36852;45.466;11.066;2023-04-12T07:08:35;19.15;;;9.58;;
23346;SDS011;36852;45.466;11.066;2023-04-12T07:11:03;17.65;;;9.85;;
23346;SDS011;36852;45.466;11.066;2023-04-12T07:13:33;17.65;;;9.05;;
23346;SDS011;36852;45.466;11.066;2023-04-12T07:16:02;16.35;;;10.03;;
23346;SDS011;36852;45.466;11.066;2023-04-12T07:18:33;14.18;;;8.78;;
23346;SDS011;36852;45.466;11.066;2023-04-12T07:21:04;19.67;;;9.20;;
23346;SDS011;36852;45.466;11.066;2023-04-12T07:23:36;12.35;;;8.10;;
23346;SDS011;36852;45.466;11.066;2023-04-12T07:26:04;15.10;;;8.68;;
23346;SDS011;36852;45.466;11.066;2023-04-12T07:28:36;15.50;;;8.70;;
23346;SDS011;36852;45.466;11.066;2023-04-12T07:31:05;14.10;;;9.50;;
23346;SDS011;36852;45.466;11.066;2023-04-12T07:33:33;12.03;;;8.08;;
23346;SDS011;36852;45.466;11.066;2023-04-12T07:36:05;32.55;;;11.48;;
23346;SDS011;36852;45.466;11.066;2023-04-12T07:38:33;16.42;;;9.38;;
23346;SDS011;36852;45.466;11.066;2023-04-12T07:41:02;14.75;;;8.45;;
23346;SDS011;36852;45.466;11.066;2023-04-12T07:43:30;14.60;;;8.60;;
23346;SDS011;36852;45.466;11.066;2023-04-12T07:46:01;14.05;;;8.23;;
23346;SDS011;36852;45.466;11.066;2023-04-12T07:48:30;13.35;;;7.90;;
23346;SDS011;36852;45.466;11.066;2023-04-12T07:50:57;12.35;;;8.63;;
23346;SDS011;36852;45.466;11.066;2023-04-12T07:53:26;12.82;;;7.67;;
23346;SDS011;36852;45.466;11.066;2023-04-12T07:55:54;16.52;;;8.75;;
23346;SDS011;36852;45.466;11.066;2023-04-12T07:58:22;16.15;;;8.88;;
23346;SDS011;36852;45.466;11.066;2023-04-12T08:00:51;14.20;;;9.83;;
23346;SDS011;36852;45.466;11.066;2023-04-12T08:03:27;11.65;;;8.15;;
23346;SDS011;36852;45.466;11.066;2023-04-12T08:05:56;16.73;;;8.40;;
23346;SDS011;36852;45.466;11.066;2023-04-12T08:08:24;12.90;;;7.72;;
23346;SDS011;36852;45.466;11.066;2023-04-12T08:10:52;13.03;;;8.43;;
23346;SDS011;36852;45.466;11.066;2023-04-12T08:13:20;15.32;;;8.60;;
23346;SDS011;36852;45.466;11.066;2023-04-12T08:15:48;12.40;;;8.40;;
23346;SDS011;36852;45.466;11.066;2023-04-12T08:18:16;16.25;;;9.20;;
23346;SDS011;36852;45.466;11.066;2023-04-12T08:20:44;15.83;;;7.80;;
23346;SDS011;36852;45.466;11.066;2023-04-12T08:23:12;11.85;;;7.33;;
23346;SDS011;36852;45.466;11.066;2023-04-12T08:25:40;12.95;;;7.35;;
23346;SDS011;36852;45.466;11.066;2023-04-12T08:28:08;12.82;;;7.30;;
23346;SDS011;36852;45.466;11.066;2023-04-12T08:30:39;11.00;;;7.62;;
23346;SDS011;36852;45.466;11.066;2023-04-12T08:33:07;18.32;;;8.38;;
23346;SDS011;36852;45.466;11.066;2023-04-12T08:35:35;11.18;;;7.78;;
23346;SDS011;36852;45.466;11.066;2023-04-12T08:38:05;13.78;;;7.53;;
23346;SDS011;36852;45.466;11.066;2023-04-12T08:40:33;11.28;;;7.80;;
23346;SDS011;36852;45.466;11.066;2023-04-12T08:43:02;14.43;;;7.70;;
23346;SDS011;36852;45.466;11.066;2023-04-12T08:45:34;13.00;;;6.95;;
23346;SDS011;36852;45.466;11.066;2023-04-12T08:48:03;11.15;;;7.22;;
23346;SDS011;36852;45.466;11.066;2023-04-12T08:50:32;12.40;;;7.58;;
23346;SDS011;36852;45.466;11.066;2023-04-12T08:53:00;11.10;;;7.62;;
23346;SDS011;36852;45.466;11.066;2023-04-12T08:55:29;11.18;;;7.35;;
23346;SDS011;36852;45.466;11.066;2023-04-12T08:57:57;10.53;;;7.12;;
23346;SDS011;36852;45.466;11.066;2023-04-12T09:00:25;12.18;;;7.00;;
23346;SDS011;36852;45.466;11.066;2023-04-12T09:02:53;12.98;;;7.47;;
23346;SDS011;36852;45.466;11.066;2023-04-12T09:05:27;11.85;;;6.60;;
23346;SDS011;36852;45.466;11.066;2023-04-12T09:07:56;12.10;;;7.57;;
23346;SDS011;36852;45.466;11.066;2023-04-12T09:10:35;11.20;;;6.70;;
23346;SDS011;36852;45.466;11.066;2023-04-12T09:13:04;10.32;;;6.70;;
23346;SDS011;36852;45.466;11.066;2023-04-12T09:15:32;12.68;;;7.75;;
23346;SDS011;36852;45.466;11.066;2023-04-12T09:18:11;13.20;;;7.62;;
23346;SDS011;36852;45.466;11.066;2023-04-12T09:20:37;12.25;;;7.35;;
23346;SDS011;36852;45.466;11.066;2023-04-12T09:23:15;12.03;;;7.47;;
23346;SDS011;36852;45.466;11.066;2023-04-12T09:25:46;9.68;;;6.62;;
23346;SDS011;36852;45.466;11.066;2023-04-12T09:28:23;14.98;;;6.58;;
23346;SDS011;36852;45.466;11.066;2023-04-12T09:30:53;11.90;;;6.85;;
23346;SDS011;36852;45.466;11.066;2023-04-12T09:33:35;12.43;;;6.50;;
23346;SDS011;36852;45.466;11.066;2023-04-12T09:36:05;12.45;;;7.42;;
23346;SDS011;36852;45.466;11.066;2023-04-12T09:38:35;10.80;;;7.03;;
23346;SDS011;36852;45.466;11.066;2023-04-12T09:41:16;9.25;;;6.40;;
23346;SDS011;36852;45.466;11.066;2023-04-12T09:43:50;11.78;;;7.15;;
23346;SDS011;36852;45.466;11.066;2023-04-12T09:46:18;12.70;;;7.15;;
23346;SDS011;36852;45.466;11.066;2023-04-12T09:48:50;10.08;;;6.35;;
23346;SDS011;36852;45.466;11.066;2023-04-12T09:51:31;10.40;;;6.95;;
23346;SDS011;36852;45.466;11.066;2023-04-12T09:56:28;9.05;;;6.33;;
23346;SDS011;36852;45.466;11.066;2023-04-12T09:59:00;9.83;;;7.08;;
23346;SDS011;36852;45.466;11.066;2023-04-12T10:01:33;9.90;;;6.67;;
23346;SDS011;36852;45.466;11.066;2023-04-12T10:04:04;11.85;;;6.83;;
23346;SDS011;36852;45.466;11.066;2023-04-12T10:06:36;13.05;;;7.42;;
23346;SDS011;36852;45.466;11.066;2023-04-12T10:09:04;11.53;;;6.72;;
23346;SDS011;36852;45.466;11.066;2023-04-12T10:11:33;11.18;;;7.37;;
23346;SDS011;36852;45.466;11.066;2023-04-12T10:14:01;16.57;;;8.18;;
23346;SDS011;36852;45.466;11.066;2023-04-12T10:16:29;13.75;;;7.37;;
23346;SDS011;36852;45.466;11.066;2023-04-12T10:19:03;10.80;;;7.33;;
23346;SDS011;36852;45.466;11.066;2023-04-12T10:21:31;13.43;;;6.83;;
23346;SDS011;36852;45.466;11.066;2023-04-12T10:24:05;9.20;;;6.90;;
23346;SDS011;36852;45.466;11.066;2023-04-12T10:26:56;14.55;;;7.05;;
23346;SDS011;36852;45.466;11.066;2023-04-12T10:29:33;9.50;;;6.58;;
23346;SDS011;36852;45.466;11.066;2023-04-12T10:34:55;12.25;;;8.03;;
23346;SDS011;36852;45.466;11.066;2023-04-12T10:40:28;11.10;;;6.60;;
23346;SDS011;36852;45.466;11.066;2023-04-12T10:45:47;11.65;;;7.10;;
23346;SDS011;36852;45.466;11.066;2023-04-12T10:48:32;10.55;;;6.97;;
23346;SDS011;36852;45.466;11.066;2023-04-12T10:56:46;9.08;;;7.12;;
23346;SDS011;36852;45.466;11.066;2023-04-12T10:59:16;10.20;;;6.40;;
23346;SDS011;36852;45.466;11.066;2023-04-12T11:07:53;8.98;;;7.17;;
23346;SDS011;36852;45.466;11.066;2023-04-12T11:10:26;9.03;;;6.65;;
23346;SDS011;36852;45.466;11.066;2023-04-12T11:12:54;9.58;;;6.83;;
23346;SDS011;36852;45.466;11.066;2023-04-12T11:15:26;10.60;;;7.47;;
23346;SDS011;36852;45.466;11.066;2023-04-12T11:18:06;10.15;;;6.92;;
23346;SDS011;36852;45.466;11.066;2023-04-12T11:20:43;8.88;;;7.10;;
23346;SDS011;36852;45.466;11.066;2023-04-12T11:23:12;9.85;;;6.78;;
23346;SDS011;36852;45.466;11.066;2023-04-12T11:25:42;9.73;;;7.22;;
23346;SDS011;36852;45.466;11.066;2023-04-12T11:28:15;11.83;;;7.60;;
23346;SDS011;36852;45.466;11.066;2023-04-12T11:30:53;10.25;;;7.15;;
23346;SDS011;36852;45.466;11.066;2023-04-12T11:38:38;8.43;;;6.97;;
23346;SDS011;36852;45.466;11.066;2023-04-12T11:41:22;15.53;;;8.33;;
23346;SDS011;36852;45.466;11.066;2023-04-12T11:43:50;9.08;;;7.28;;
23346;SDS011;36852;45.466;11.066;2023-04-12T11:46:33;10.50;;;7.53;;
23346;SDS011;36852;45.466;11.066;2023-04-12T11:49:05;12.23;;;7.33;;
23346;SDS011;36852;45.466;11.066;2023-04-12T11:51:38;17.12;;;9.90;;
23346;SDS011;36852;45.466;11.066;2023-04-12T11:54:12;15.45;;;9.10;;
23346;SDS011;36852;45.466;11.066;2023-04-12T11:56:42;12.35;;;8.73;;
23346;SDS011;36852;45.466;11.066;2023-04-12T11:59:12;10.82;;;7.95;;
23346;SDS011;36852;45.466;11.066;2023-04-12T12:01:40;13.95;;;8.53;;
23346;SDS011;36852;45.466;11.066;2023-04-12T12:04:09;13.72;;;9.15;;
23346;SDS011;36852;45.466;11.066;2023-04-12T12:06:37;11.28;;;7.95;;
23346;SDS011;36852;45.466;11.066;2023-04-12T12:09:05;11.70;;;8.68;;
23346;SDS011;36852;45.466;11.066;2023-04-12T12:11:36;12.33;;;7.72;;
23346;SDS011;36852;45.466;11.066;2023-04-12T12:14:03;11.70;;;8.48;;
23346;SDS011;36852;45.466;11.066;2023-04-12T12:16:33;11.25;;;8.65;;
23346;SDS011;36852;45.466;11.066;2023-04-12T12:19:03;12.28;;;8.43;;
23346;SDS011;36852;45.466;11.066;2023-04-12T12:21:34;12.82;;;8.60;;
23346;SDS011;36852;45.466;11.066;2023-04-12T12:24:02;12.65;;;8.60;;
23346;SDS011;36852;45.466;11.066;2023-04-12T12:26:30;11.03;;;8.15;;
23346;SDS011;36852;45.466;11.066;2023-04-12T12:29:02;9.95;;;7.22;;
23346;SDS011;36852;45.466;11.066;2023-04-12T12:31:30;14.63;;;7.83;;
23346;SDS011;36852;45.466;11.066;2023-04-12T12:34:01;11.10;;;8.35;;
23346;SDS011;36852;45.466;11.066;2023-04-12T12:36:31;10.68;;;8.50;;
23346;SDS011;36852;45.466;11.066;2023-04-12T12:39:05;10.65;;;7.95;;
23346;SDS011;36852;45.466;11.066;2023-04-12T12:41:38;11.70;;;8.30;;
23346;SDS011;36852;45.466;11.066;2023-04-12T12:44:07;11.70;;;8.53;;
23346;SDS011;36852;45.466;11.066;2023-04-12T12:46:57;10.30;;;7.75;;
23346;SDS011;36852;45.466;11.066;2023-04-12T12:49:28;10.90;;;7.50;;
23346;SDS011;36852;45.466;11.066;2023-04-12T12:51:57;13.62;;;9.28;;
23346;SDS011;36852;45.466;11.066;2023-04-12T12:54:25;11.95;;;8.93;;
23346;SDS011;36852;45.466;11.066;2023-04-12T12:56:56;11.25;;;7.62;;
23346;SDS011;36852;45.466;11.066;2023-04-12T12:59:25;12.03;;;8.03;;
23346;SDS011;36852;45.466;11.066;2023-04-12T13:01:53;14.40;;;7.92;;
23346;SDS011;36852;45.466;11.066;2023-04-12T13:04:22;11.60;;;9.18;;
23346;SDS011;36852;45.466;11.066;2023-04-12T13:06:51;11.08;;;8.65;;
23346;SDS011;36852;45.466;11.066;2023-04-12T13:09:19;12.23;;;8.80;;
23346;SDS011;36852;45.466;11.066;2023-04-12T13:11:47;10.45;;;8.43;;
23346;SDS011;36852;45.466;11.066;2023-04-12T13:14:15;18.65;;;12.55;;
23346;SDS011;36852;45.466;11.066;2023-04-12T13:16:43;15.65;;;10.55;;
23346;SDS011;36852;45.466;11.066;2023-04-12T13:19:12;11.45;;;8.90;;
23346;SDS011;36852;45.466;11.066;2023-04-12T13:21:41;13.45;;;8.08;;
23346;SDS011;36852;45.466;11.066;2023-04-12T13:24:09;11.05;;;8.35;;
23346;SDS011;36852;45.466;11.066;2023-04-12T13:26:37;11.53;;;8.05;;
23346;SDS011;36852;45.466;11.066;2023-04-12T13:29:06;12.20;;;9.18;;
23346;SDS011;36852;45.466;11.066;2023-04-12T13:31:34;9.78;;;7.78;;
23346;SDS011;36852;45.466;11.066;2023-04-12T13:34:02;12.10;;;7.70;;
23346;SDS011;36852;45.466;11.066;2023-04-12T13:36:31;10.15;;;7.40;;
23346;SDS011;36852;45.466;11.066;2023-04-12T13:38:58;9.65;;;7.28;;
23346;SDS011;36852;45.466;11.066;2023-04-12T13:41:27;12.70;;;8.03;;
23346;SDS011;36852;45.466;11.066;2023-04-12T13:43:58;12.55;;;9.23;;
23346;SDS011;36852;45.466;11.066;2023-04-12T13:46:26;10.18;;;7.58;;
23346;SDS011;36852;45.466;11.066;2023-04-12T13:48:54;10.65;;;7.75;;
23346;SDS011;36852;45.466;11.066;2023-04-12T13:51:22;10.65;;;7.85;;
23346;SDS011;36852;45.466;11.066;2023-04-12T13:53:51;10.03;;;7.58;;
23346;SDS011;36852;45.466;11.066;2023-04-12T13:56:19;11.00;;;8.83;;
23346;SDS011;36852;45.466;11.066;2023-04-12T13:58:50;11.90;;;8.30;;
23346;SDS011;36852;45.466;11.066;2023-04-12T14:01:19;14.78;;;8.98;;
23346;SDS011;36852;45.466;11.066;2023-04-12T14:03:48;11.93;;;8.70;;
23346;SDS011;36852;45.466;11.066;2023-04-12T14:06:16;12.40;;;8.83;;
23346;SDS011;36852;45.466;11.066;2023-04-12T14:08:44;12.35;;;8.55;;
23346;SDS011;36852;45.466;11.066;2023-04-12T14:13:56;14.93;;;10.85;;
23346;SDS011;36852;45.466;11.066;2023-04-12T14:16:24;13.22;;;9.65;;
23346;SDS011;36852;45.466;11.066;2023-04-12T14:18:54;15.03;;;10.18;;
23346;SDS011;36852;45.466;11.066;2023-04-12T14:21:27;15.18;;;9.68;;
23346;SDS011;36852;45.466;11.066;2023-04-12T14:23:54;14.18;;;8.90;;
23346;SDS011;36852;45.466;11.066;2023-04-12T14:29:11;15.35;;;10.60;;
23346;SDS011;36852;45.466;11.066;2023-04-12T14:31:42;12.37;;;9.00;;
23346;SDS011;36852;45.466;11.066;2023-04-12T14:34:10;13.03;;;8.48;;
23346;SDS011;36852;45.466;11.066;2023-04-12T14:36:39;12.37;;;9.73;;
23346;SDS011;36852;45.466;11.066;2023-04-12T14:39:07;13.35;;;8.43;;
23346;SDS011;36852;45.466;11.066;2023-04-12T14:41:37;12.98;;;9.53;;
23346;SDS011;36852;45.466;11.066;2023-04-12T14:44:09;13.53;;;8.93;;
23346;SDS011;36852;45.466;11.066;2023-04-12T14:46:40;15.15;;;11.05;;
23346;SDS011;36852;45.466;11.066;2023-04-12T14:49:09;18.82;;;11.70;;
23346;SDS011;36852;45.466;11.066;2023-04-12T14:51:37;16.32;;;10.90;;
23346;SDS011;36852;45.466;11.066;2023-04-12T14:54:05;18.30;;;10.03;;
23346;SDS011;36852;45.466;11.066;2023-04-12T14:56:36;14.23;;;10.00;;
23346;SDS011;36852;45.466;11.066;2023-04-12T14:59:06;14.05;;;9.48;;
23346;SDS011;36852;45.466;11.066;2023-04-12T15:01:34;13.55;;;9.65;;
23346;SDS011;36852;45.466;11.066;2023-04-12T15:04:13;12.28;;;8.65;;
23346;SDS011;36852;45.466;11.066;2023-04-12T15:06:42;13.83;;;9.53;;
23346;SDS011;36852;45.466;11.066;2023-04-12T15:09:12;14.23;;;9.20;;
23346;SDS011;36852;45.466;11.066;2023-04-12T15:11:41;19.07;;;10.15;;